Pagina principale
METAR-TAF:

METAR-TAF

Aeroporti :

Aeroporto di Berna

Berna, Svizzera

latitudine: 46-55N, longitudine: 007-30E, altezza: 505 m

Osservazione

Il bollettino è stato emesso 35 minuti fa, alle 00:20 UTC
Vento 5 kt da ovest/nord-ovest
Temperature 0°C
Umidità 93%
Pressione 1022 hPa
Visibilità: 9000 m
Cielo coperto ad un'altezza di 1300 ft

METAR: LSZB 300020Z AUTO 29005KT 9000 OVC013 00/M01 Q1022

Ora: 01:55 (00:55 UTC)

Previsione

Il bollettino è stato emesso 10 ore e 30 minuti fa, alle 14:25 UTC
Previsione valida dal 29 alle 15 UTC al 29 alle 24 UTC
Vento 3 kt da direzioni variabili
Visibilità: 7000 m
Nubi sparse ad un'altezza di 1500 ft
Cielo coperto ad un'altezza di 1800 ft
Evoluzione graduale
dal 29 alle 17 UTC al 29 alle 20 UTC
Cielo coperto ad un'altezza di 1200 ft
Probabilità 30%
dal 29 alle 18 UTC al 29 alle 24 UTC
Visibilità: 4500 m
foschia

TAF: LSZB 291425Z 2915/2924 VRB03KT 7000 SCT015 OVC018 BECMG 2917/2920 OVC012 PROB30 2918/2924 4500 BR

Osservazioni e previsioni meteorologiche di più di 4000 aeroporti (messaggi METAR e TAF).

Le stazioni disponibili sono rappresentate dai dischi gialli e rossi sulla carta.

Puntare il mouse per vedere il nome della stazione.

Clicca sopra per visualizzare le osservazioni e previsioni meteorologiche.

Per cambiare la mappa : fare clic sui pulsanti verdi con una croce nera per ingrandire, il pulsante verde con un trattino per diminuire, o sulla freccia verde per le mappe adiacenti.


METAR-TAF: